Hovedside
METAR-TAF:

METAR-TAF

Lufthavner :

Stokmarknes lufthavn. Skagen

Stokmarknes, Norge

breddegrad: 68-35N, lengdegrad: 015-01E, høyde over havet: 0 m

Gjeldene værobservasjon

Denne rapporten ble laget for 6 timer og 57 minutter siden, klokken 23:50 UTC
Vind 5 kt fra Nord
Temperatur 2°C
Luftfuktighet 93%
Trykk 1012 hPa
Sikt 10 km eller mer
Få skyer i en høyde av 1500 ft
Spredte skyer i en høyde av 3500 ft
regnbyger i nærheten

METAR: ENSK 142350Z 36005KT 9999 VCSH FEW015 SCT035 02/01 Q1012

Tid: 07:47 (06:47 UTC)


TAF: fraværende

Værobservasjoner og værvarsel for over 4000 flyplasser (METAR- og TAF-rapporter).

Tilgjengelige stasjoner er representert av de røde og gule prikkene på kartet.

Hold musepekeren over prikken for å se navnet på stasjonen.

Klikk så for å se værobservasjoner og -varsler.

For å forandre kartet kan du klikke på den grønne knappen med svart kryss for å zoome inn, på den grønne knappen med strek for å zoome ut, eller på de grønne pilene for å se tilstøtende kart.


METAR-TAF: